| time (UTC) | temp C | wind direction | speed KPH | gust KPH | rain 1hr cm | rain 24hr cm | rain mn cm | humidity % | barometer mb |
| 20260503013017 | 18 | 116 | 0.0 | 0.0 | 0.00 | 0.00 | 0.00 | 35 | 909.6 |
| 20260503011526 | 21 | 286 | 0.0 | 0.0 | 0.00 | 0.00 | 0.00 | 31 | 909.7 |
| 20260503010104 | 18 | 254 | 0.0 | 0.0 | 0.00 | 0.00 | 0.00 | 34 | 909.8 |
| 20260503004602 | 19 | 91 | 0.0 | 0.0 | 0.00 | 0.00 | 0.00 | 35 | 909.9 |
| 20260503003102 | 18 | 80 | 0.0 | 0.0 | 0.00 | 0.00 | 0.00 | 35 | 910.0 |
| 20260503001602 | 18 | 42 | 0.0 | 0.0 | 0.00 | 0.00 | 0.00 | 34 | 910.2 |
| 20260503000053 | 18 | 11 | 0.0 | 0.0 | 0.00 | 0.00 | 0.00 | 34 | 910.2 |
| 20260502234555 | 18 | 45 | 0.0 | 0.0 | 0.00 | 0.00 | 0.00 | 35 | 910.3 |
| 20260502233051 | 18 | 49 | 0.0 | 0.0 | 0.00 | 0.00 | 0.00 | 34 | 910.4 |
| 20260502231553 | 18 | 44 | 0.0 | 0.0 | 0.00 | 0.00 | 0.00 | 34 | 910.5 |
| 20260502230037 | 18 | 30 | 0.0 | 0.0 | 0.00 | 0.00 | 0.00 | 34 | 910.6 |
| 20260502224535 | 17 | 318 | 0.0 | 0.0 | 0.00 | 0.00 | 0.00 | 36 | 910.9 |
| 20260502223033 | 18 | 321 | 0.0 | 0.0 | 0.00 | 0.00 | 0.00 | 35 | 911.1 |
| 20260502221533 | 19 | 46 | 0.0 | 0.0 | 0.00 | 0.00 | 0.00 | 33 | 911.2 |
| 20260502220032 | 17 | 304 | 0.0 | 0.0 | 0.00 | 0.00 | 0.00 | 35 | 911.5 |
| 20260502214526 | 17 | 321 | 0.0 | 0.0 | 0.00 | 0.00 | 0.00 | 35 | 911.7 |
| 20260502213030 | 18 | 316 | 0.0 | 0.0 | 0.00 | 0.00 | 0.00 | 33 | 911.9 |
| 20260502211524 | 18 | 340 | 0.0 | 0.0 | 0.00 | 0.00 | 0.00 | 33 | 911.9 |
| 20260502210004 | 18 | 46 | 0.0 | 0.0 | 0.00 | 0.00 | 0.00 | 33 | 912.1 |
| 20260502204501 | 18 | 284 | 0.0 | 0.0 | 0.00 | 0.00 | 0.00 | 34 | 912.1 |
| 20260502203102 | 18 | 56 | 0.0 | 0.0 | 0.00 | 0.00 | 0.00 | 33 | 912.4 |
| 20260502201551 | 17 | 37 | 0.0 | 0.0 | 0.00 | 0.00 | 0.00 | 33 | 912.5 |
| 20260502200048 | 17 | 46 | 0.0 | 0.0 | 0.00 | 0.00 | 0.00 | 34 | 912.6 |
| 20260502194552 | 17 | 46 | 0.0 | 0.0 | 0.00 | 0.00 | 0.00 | 33 | 912.9 |
| 20260502193033 | 16 | 338 | 0.0 | 0.0 | 0.00 | 0.00 | 0.00 | 37 | 913.0 |
| 20260502191537 | 16 | 269 | 0.0 | 0.0 | 0.00 | 0.00 | 0.00 | 41 | 913.2 |
| 20260502190028 | 15 | 57 | 0.0 | 0.0 | 0.00 | 0.00 | 0.00 | 40 | 913.4 |
| 20260502184535 | 15 | 316 | 0.0 | 0.0 | 0.00 | 0.00 | 0.00 | 40 | 913.5 |
| 20260502183026 | 15 | 11 | 0.0 | 0.0 | 0.00 | 0.00 | 0.00 | 42 | 913.5 |
| 20260502181531 | 15 | 337 | 0.0 | 0.0 | 0.00 | 0.00 | 0.00 | 44 | 913.6 |
| 20260502163025 | 15 | 339 | 0.0 | 0.0 | 0.00 | 0.00 | 0.00 | 47 | 913.6 |
| 20260502161511 | 15 | 328 | 0.0 | 0.0 | 0.00 | 0.00 | 0.00 | 46 | 913.5 |
| 20260502151556 | 13 | 322 | 0.0 | 0.0 | 0.00 | 0.00 | 0.00 | 50 | 913.6 |
| 20260502123040 | 5 | 314 | 0.0 | 0.0 | 0.00 | 0.00 | 0.00 | 72 | 912.7 |
| 20260502121539 | 5 | 307 | 0.0 | 0.0 | 0.00 | 0.00 | 0.00 | 71 | 912.5 |
| 20260502114512 | 7 | 323 | 0.0 | 0.0 | 0.00 | 0.00 | 0.00 | 63 | 912.4 |
| 20260502113011 | 8 | 349 | 0.0 | 0.0 | 0.00 | 0.00 | 0.00 | 58 | 912.3 |
| 20260502111554 | 8 | 44 | 0.0 | 0.0 | 0.00 | 0.00 | 0.00 | 57 | 912.0 |
| 20260502110051 | 9 | 45 | 0.0 | 0.0 | 0.00 | 0.00 | 0.00 | 55 | 911.7 |
| 20260502104548 | 9 | 51 | 0.0 | 0.0 | 0.00 | 0.00 | 0.00 | 56 | 911.5 |
| 20260502103047 | 7 | 49 | 0.0 | 0.0 | 0.00 | 0.00 | 0.00 | 61 | 911.4 |
| 20260502101545 | 7 | 36 | 0.0 | 0.0 | 0.00 | 0.00 | 0.00 | 61 | 911.2 |
| 20260502071521 | 5 | 318 | 0.0 | 0.0 | 0.00 | 0.00 | 0.00 | 69 | 909.3 |
| 20260502070020 | 5 | 303 | 0.0 | 0.0 | 0.00 | 0.00 | 0.00 | 68 | 909.2 |
| 20260502064501 | 5 | 319 | 0.0 | 0.0 | 0.00 | 0.00 | 0.00 | 68 | 909.3 |
| 20260502063002 | 5 | 319 | 0.0 | 0.0 | 0.00 | 0.00 | 0.00 | 68 | 909.3 |
| 20260502061548 | 5 | 290 | 0.0 | 0.0 | 0.00 | 0.00 | 0.00 | 69 | 909.3 |
| 20260502060053 | 5 | 293 | 0.0 | 0.0 | 0.00 | 0.00 | 0.00 | 70 | 909.2 |
| 20260502054553 | 5 | 319 | 0.0 | 0.0 | 0.00 | 0.00 | 0.00 | 70 | 909.1 |
| 20260502053048 | 5 | 314 | 0.0 | 0.0 | 0.00 | 0.00 | 0.00 | 68 | 909.2 |
| 20260502051543 | 5 | 323 | 0.0 | 0.0 | 0.00 | 0.00 | 0.00 | 65 | 909.2 |
| 20260502050043 | 5 | 308 | 0.0 | 0.0 | 0.00 | 0.00 | 0.00 | 63 | 909.1 |
| 20260502044544 | 6 | 295 | 0.0 | 0.0 | 0.00 | 0.00 | 0.00 | 59 | 909.1 |
| 20260502043041 | 7 | 326 | 0.0 | 0.0 | 0.00 | 0.00 | 0.00 | 56 | 909.0 |
| 20260502041522 | 9 | 283 | 0.0 | 0.0 | 0.00 | 0.00 | 0.00 | 50 | 908.8 |
| 20260502040018 | 11 | 31 | 0.0 | 0.0 | 0.00 | 0.00 | 0.00 | 41 | 908.8 |
| 20260502034530 | 11 | 320 | 0.0 | 0.0 | 0.00 | 0.00 | 0.00 | 40 | 908.8 |
| 20260502033016 | 12 | 46 | 0.0 | 0.0 | 0.00 | 0.00 | 0.00 | 35 | 908.6 |
| 20260502031513 | 12 | 52 | 0.0 | 0.0 | 0.00 | 0.00 | 0.00 | 35 | 908.5 |
| 20260502030009 | 13 | 58 | 0.0 | 0.0 | 0.00 | 0.00 | 0.00 | 32 | 908.3 |
| 20260502024511 | 16 | 46 | 0.0 | 0.0 | 0.00 | 0.00 | 0.00 | 27 | 908.2 |
| 20260502023004 | 16 | 44 | 0.0 | 0.0 | 0.00 | 0.00 | 0.00 | 27 | 908.1 |
| 20260502021549 | 16 | 44 | 0.0 | 0.0 | 0.00 | 0.00 | 0.00 | 28 | 908.0 |
| 20260502020044 | 17 | 45 | 0.0 | 0.0 | 0.00 | 0.00 | 0.00 | 25 | 908.0 |
| 20260502014546 | 19 | 46 | 0.0 | 0.0 | 0.00 | 0.00 | 0.00 | 23 | 908.0 |